Time;durP1;ratioP1;P1;durP2;ratioP2;P2;SDS_P1;SDS_P2;PMS_P1;PMS_P2;Temp;Humidity;BMP_temperature;BMP_pressure;BME280_temperature;BME280_humidity;BME280_pressure;Samples;Min_cycle;Max_cycle;Signal;HPM_P1;HPM_P2
2021/08/23 00:00:18;;;;;;;;;;;23.70;49.70;;;;;;1526596;76;801;-59
2021/08/23 00:02:20;;;;;;;;;;;23.70;49.60;;;;;;1526291;76;1923;-61
2021/08/23 00:04:22;;;;;;;;;;;23.70;49.60;;;;;;1520392;76;1128;-60
2021/08/23 00:06:23;;;;;;;;;;;23.70;49.60;;;;;;1528250;76;754;-59
2021/08/23 00:08:25;;;;;;;;;;;23.70;49.60;;;;;;1530216;76;783;-61
2021/08/23 00:10:27;;;;;;;;;;;23.60;49.40;;;;;;1560744;75;813;-59
2021/08/23 00:12:30;;;;;;;;;;;23.60;49.40;;;;;;1552091;75;807;-61
2021/08/23 00:14:32;;;;;;;;;;;23.70;49.40;;;;;;1559802;75;750;-61
2021/08/23 00:16:34;;;;;;;;;;;23.70;49.30;;;;;;1559305;75;808;-60
2021/08/23 00:18:36;;;;;;;;;;;23.70;49.40;;;;;;1560931;75;787;-60
2021/08/23 00:20:50;;;;;;;;;;;23.70;49.30;;;;;;1562405;75;833;-60
2021/08/23 00:22:48;;;;;;;;;;;23.70;49.30;;;;;;1558356;75;1947;-61
2021/08/23 00:24:50;;;;;;;;;;;23.60;49.20;;;;;;1563144;75;865;-60
2021/08/23 00:26:53;;;;;;;;;;;23.70;49.20;;;;;;1562114;75;804;-59
2021/08/23 00:28:55;;;;;;;;;;;23.70;49.20;;;;;;1553180;75;662;-60
2021/08/23 00:30:56;;;;;;;;;;;23.60;49.00;;;;;;1555779;75;779;-59
2021/08/23 00:32:58;;;;;;;;;;;23.60;48.90;;;;;;1567136;74;1164;-60
2021/08/23 00:35:00;;;;;;;;;;;23.60;48.90;;;;;;1565105;75;741;-60
2021/08/23 00:37:02;;;;;;;;;;;23.60;48.90;;;;;;1559703;75;781;-60
2021/08/23 00:39:05;;;;;;;;;;;23.60;48.90;;;;;;1564566;75;713;-59
2021/08/23 00:41:07;;;;;;;;;;;23.70;49.00;;;;;;1557281;75;708;-61
2021/08/23 00:43:09;;;;;;;;;;;23.60;48.90;;;;;;1563368;75;1924;-60
2021/08/23 00:45:11;;;;;;;;;;;23.60;48.80;;;;;;1570276;75;670;-59
2021/08/23 00:47:13;;;;;;;;;;;23.70;48.90;;;;;;1562021;75;736;-60
2021/08/23 00:49:14;;;;;;;;;;;23.60;48.90;;;;;;1551025;75;780;-60
2021/08/23 00:51:16;;;;;;;;;;;23.60;48.80;;;;;;1560219;75;799;-59
2021/08/23 00:53:19;;;;;;;;;;;23.60;48.80;;;;;;1553875;75;1166;-60
2021/08/23 00:55:20;;;;;;;;;;;23.60;48.70;;;;;;1551490;75;797;-60
2021/08/23 00:57:22;;;;;;;;;;;23.60;48.80;;;;;;1564188;75;743;-60
2021/08/23 00:59:25;;;;;;;;;;;23.70;48.90;;;;;;1561709;75;725;-60
2021/08/23 01:01:37;;;;;;;;;;;23.60;48.80;;;;;;1559365;75;767;-59
2021/08/23 01:03:57;;;;;;;;;;;23.60;48.70;;;;;;1525708;75;1944;-60
2021/08/23 01:06:00;;;;;;;;;;;23.60;48.70;;;;;;1569991;75;753;-59
2021/08/23 01:08:03;;;;;;;;;;;23.70;48.80;;;;;;1559765;75;772;-59
2021/08/23 01:10:07;;;;;;;;;;;23.60;48.70;;;;;;1565116;75;948;-59
2021/08/23 01:12:09;;;;;;;;;;;23.60;48.70;;;;;;1552215;75;910;-60
2021/08/23 01:14:11;;;;;;;;;;;23.60;48.70;;;;;;1566120;75;1144;-59
2021/08/23 01:16:12;;;;;;;;;;;23.70;48.80;;;;;;1561535;75;777;-60
2021/08/23 01:18:14;;;;;;;;;;;23.60;48.60;;;;;;1567911;75;801;-59
2021/08/23 01:20:16;;;;;;;;;;;23.60;48.60;;;;;;1560605;75;920;-60
2021/08/23 01:22:18;;;;;;;;;;;23.60;48.60;;;;;;1559903;75;758;-60
2021/08/23 01:24:20;;;;;;;;;;;23.60;48.60;;;;;;1565092;75;1950;-61
2021/08/23 01:26:24;;;;;;;;;;;23.60;48.50;;;;;;1554208;75;752;-60
2021/08/23 01:28:36;;;;;;;;;;;23.60;48.50;;;;;;1539808;75;822;-59
2021/08/23 01:30:40;;;;;;;;;;;23.70;48.60;;;;;;1547657;75;2117;-61
2021/08/23 01:32:42;;;;;;;;;;;23.60;48.50;;;;;;1554820;74;1471;-60
2021/08/23 01:34:44;;;;;;;;;;;23.60;48.40;;;;;;1563481;75;750;-61
2021/08/23 01:36:46;;;;;;;;;;;23.60;48.50;;;;;;1562842;75;608;-59
2021/08/23 01:38:48;;;;;;;;;;;23.60;48.50;;;;;;1560103;75;720;-60
2021/08/23 01:40:51;;;;;;;;;;;23.60;48.50;;;;;;1559571;75;649;-60
2021/08/23 01:42:53;;;;;;;;;;;23.70;48.60;;;;;;1564598;74;1966;-59
2021/08/23 01:44:55;;;;;;;;;;;23.60;48.40;;;;;;1567795;75;646;-59
2021/08/23 01:46:57;;;;;;;;;;;23.60;48.40;;;;;;1567770;75;722;-60
2021/08/23 01:49:01;;;;;;;;;;;23.60;48.40;;;;;;1555161;75;739;-60
2021/08/23 01:51:03;;;;;;;;;;;23.60;48.40;;;;;;1561751;75;1873;-60
2021/08/23 01:53:05;;;;;;;;;;;23.60;48.40;;;;;;1578308;73;223301;-63
2021/08/23 01:55:07;;;;;;;;;;;23.60;48.40;;;;;;1559794;75;666;-62
2021/08/23 01:57:17;;;;;;;;;;;23.60;48.30;;;;;;1554884;76;674;-63
2021/08/23 01:59:18;;;;;;;;;;;23.60;48.30;;;;;;1538751;76;1374;-62
2021/08/23 02:01:20;;;;;;;;;;;23.50;48.30;;;;;;1548914;75;1208;-63
2021/08/23 02:03:22;;;;;;;;;;;23.60;48.40;;;;;;1521480;77;1940;-62
2021/08/23 02:05:25;;;;;;;;;;;23.60;48.30;;;;;;1524519;77;919;-63
2021/08/23 02:07:27;;;;;;;;;;;23.50;48.20;;;;;;1514345;77;702;-63
2021/08/23 02:09:29;;;;;;;;;;;23.60;48.30;;;;;;1524003;77;848;-63
2021/08/23 02:11:31;;;;;;;;;;;23.60;48.20;;;;;;1524008;77;1143;-63
2021/08/23 02:13:33;;;;;;;;;;;23.50;48.20;;;;;;1525259;77;782;-62
2021/08/23 02:15:35;;;;;;;;;;;23.60;48.20;;;;;;1523842;77;811;-62
2021/08/23 02:17:37;;;;;;;;;;;23.50;48.20;;;;;;1523609;77;724;-63
2021/08/23 02:19:39;;;;;;;;;;;23.60;48.20;;;;;;1525683;77;676;-63
2021/08/23 02:21:50;;;;;;;;;;;23.60;48.20;;;;;;1520497;77;1127;-63
2021/08/23 02:23:52;;;;;;;;;;;23.50;48.20;;;;;;1524335;77;1935;-63
2021/08/23 02:25:54;;;;;;;;;;;23.60;48.20;;;;;;1523300;77;807;-63
2021/08/23 02:27:56;;;;;;;;;;;23.50;48.20;;;;;;1519371;77;746;-63
2021/08/23 02:29:58;;;;;;;;;;;23.50;48.20;;;;;;1507620;77;811;-63
2021/08/23 02:32:00;;;;;;;;;;;23.60;48.20;;;;;;1521273;77;1154;-63
2021/08/23 02:34:02;;;;;;;;;;;23.50;48.20;;;;;;1520041;77;716;-63
2021/08/23 02:36:04;;;;;;;;;;;23.50;48.10;;;;;;1521391;77;793;-61
2021/08/23 02:38:08;;;;;;;;;;;23.50;48.10;;;;;;1515898;77;700;-63
2021/08/23 02:40:11;;;;;;;;;;;23.60;48.10;;;;;;1515336;77;716;-62
2021/08/23 02:42:13;;;;;;;;;;;23.50;48.10;;;;;;1524761;77;1121;-62
2021/08/23 02:44:15;;;;;;;;;;;23.50;48.10;;;;;;1512635;77;1926;-63
2021/08/23 02:46:17;;;;;;;;;;;23.60;48.10;;;;;;1517079;77;783;-61
2021/08/23 02:48:18;;;;;;;;;;;23.50;48.10;;;;;;1514826;77;730;-63
2021/08/23 02:50:20;;;;;;;;;;;23.50;48.10;;;;;;1525450;77;821;-63
2021/08/23 02:52:22;;;;;;;;;;;23.50;48.10;;;;;;1526693;75;1146;-63
2021/08/23 02:54:25;;;;;;;;;;;23.60;48.10;;;;;;1544652;75;695;-63
2021/08/23 02:56:27;;;;;;;;;;;23.60;48.10;;;;;;1543383;75;787;-62
2021/08/23 02:58:29;;;;;;;;;;;23.50;48.10;;;;;;1545836;75;752;-63
2021/08/23 03:00:30;;;;;;;;;;;23.60;48.10;;;;;;1548407;75;806;-62
2021/08/23 03:02:32;;;;;;;;;;;23.50;48.10;;;;;;1533472;75;1204;-63
2021/08/23 03:04:34;;;;;;;;;;;23.50;48.10;;;;;;1538556;75;1956;-63
2021/08/23 03:06:36;;;;;;;;;;;23.50;48.10;;;;;;1535321;75;806;-63
2021/08/23 03:08:39;;;;;;;;;;;23.50;48.10;;;;;;1539970;75;774;-63
2021/08/23 03:10:41;;;;;;;;;;;23.50;48.10;;;;;;1542309;75;784;-63
2021/08/23 03:12:43;;;;;;;;;;;23.50;48.10;;;;;;1544029;74;1135;-63
2021/08/23 03:14:44;;;;;;;;;;;23.50;48.10;;;;;;1553635;75;817;-62
2021/08/23 03:16:46;;;;;;;;;;;23.50;48.10;;;;;;1544122;75;754;-61
2021/08/23 03:18:48;;;;;;;;;;;23.50;48.00;;;;;;1552210;75;762;-62
2021/08/23 03:20:50;;;;;;;;;;;23.50;48.00;;;;;;1544335;75;753;-61
2021/08/23 03:22:52;;;;;;;;;;;23.50;48.00;;;;;;1540030;75;1071;-61
2021/08/23 03:24:54;;;;;;;;;;;23.50;48.00;;;;;;1540982;76;1944;-63
2021/08/23 03:26:56;;;;;;;;;;;23.60;48.00;;;;;;1549163;76;810;-63
2021/08/23 03:28:58;;;;;;;;;;;23.50;47.90;;;;;;1549594;75;798;-62
2021/08/23 03:30:59;;;;;;;;;;;23.50;47.90;;;;;;1546177;76;661;-63
2021/08/23 03:33:01;;;;;;;;;;;23.50;47.90;;;;;;1542866;75;1129;-63
2021/08/23 03:35:04;;;;;;;;;;;23.50;47.80;;;;;;1543573;75;716;-63
2021/08/23 03:37:06;;;;;;;;;;;23.50;47.90;;;;;;1543741;76;827;-63
2021/08/23 03:39:08;;;;;;;;;;;23.50;47.90;;;;;;1542455;75;801;-62
2021/08/23 03:41:11;;;;;;;;;;;23.50;47.80;;;;;;1538501;75;1158;-62
2021/08/23 03:43:12;;;;;;;;;;;23.50;47.80;;;;;;1543342;75;743;-63
2021/08/23 03:45:14;;;;;;;;;;;23.50;47.80;;;;;;1550106;75;1933;-63
2021/08/23 03:47:17;;;;;;;;;;;23.50;47.80;;;;;;1554021;75;770;-60
2021/08/23 03:49:18;;;;;;;;;;;23.50;47.80;;;;;;1552494;75;791;-63
2021/08/23 03:51:20;;;;;;;;;;;23.40;47.70;;;;;;1550374;74;1139;-63
2021/08/23 03:53:22;;;;;;;;;;;23.50;47.80;;;;;;1551589;75;812;-62
2021/08/23 03:55:24;;;;;;;;;;;23.50;47.80;;;;;;1554645;75;739;-63
2021/08/23 03:57:26;;;;;;;;;;;23.50;47.70;;;;;;1553406;75;807;-62
2021/08/23 03:59:28;;;;;;;;;;;23.50;47.70;;;;;;1552504;75;757;-62
2021/08/23 04:01:30;;;;;;;;;;;23.50;47.70;;;;;;1539054;75;1160;-63
2021/08/23 04:03:32;;;;;;;;;;;23.50;47.70;;;;;;1555144;75;847;-62
2021/08/23 04:05:33;;;;;;;;;;;23.50;47.70;;;;;;1559389;75;1930;-63
2021/08/23 04:07:35;;;;;;;;;;;23.50;47.80;;;;;;1547657;75;777;-62
2021/08/23 04:09:37;;;;;;;;;;;23.50;47.70;;;;;;1542264;75;792;-60
2021/08/23 04:11:39;;;;;;;;;;;23.50;47.70;;;;;;1539581;75;1192;-62
2021/08/23 04:13:41;;;;;;;;;;;23.50;47.70;;;;;;1540656;75;774;-63
2021/08/23 04:15:47;;;;;;;;;;;23.40;47.60;;;;;;1543970;75;839;-63
2021/08/23 04:17:48;;;;;;;;;;;23.50;47.70;;;;;;1543760;75;730;-63
2021/08/23 04:19:50;;;;;;;;;;;23.50;47.60;;;;;;1538358;75;760;-62
2021/08/23 04:21:52;;;;;;;;;;;23.50;47.70;;;;;;1548159;75;1175;-62
2021/08/23 04:23:54;;;;;;;;;;;23.50;47.70;;;;;;1546587;75;1937;-63
2021/08/23 04:25:56;;;;;;;;;;;23.50;47.70;;;;;;1543504;75;1141;-63
2021/08/23 04:27:58;;;;;;;;;;;23.50;47.70;;;;;;1543616;75;728;-63
2021/08/23 04:30:00;;;;;;;;;;;23.50;47.70;;;;;;1547480;75;834;-62
2021/08/23 04:32:02;;;;;;;;;;;23.50;47.60;;;;;;1545827;76;1142;-62
2021/08/23 04:34:03;;;;;;;;;;;23.40;47.50;;;;;;1550256;75;799;-62
2021/08/23 04:36:05;;;;;;;;;;;23.50;47.60;;;;;;1539321;75;761;-63
2021/08/23 04:38:07;;;;;;;;;;;23.50;47.60;;;;;;1552478;75;784;-62
2021/08/23 04:40:09;;;;;;;;;;;23.50;47.60;;;;;;1545212;75;669;-63
2021/08/23 04:42:11;;;;;;;;;;;23.50;47.60;;;;;;1553288;75;1176;-63
2021/08/23 04:44:13;;;;;;;;;;;23.50;47.60;;;;;;1545788;75;1939;-63
2021/08/23 04:46:15;;;;;;;;;;;23.50;47.60;;;;;;1546448;75;765;-61
2021/08/23 04:48:17;;;;;;;;;;;23.50;47.70;;;;;;1541458;75;808;-62
2021/08/23 04:50:19;;;;;;;;;;;23.50;47.60;;;;;;1548294;75;753;-63
2021/08/23 04:52:22;;;;;;;;;;;23.50;47.60;;;;;;1543699;76;1145;-62
2021/08/23 04:54:24;;;;;;;;;;;23.40;47.40;;;;;;1555638;75;736;-60
2021/08/23 04:56:26;;;;;;;;;;;23.50;47.60;;;;;;1544719;75;789;-63
2021/08/23 04:58:28;;;;;;;;;;;23.50;47.60;;;;;;1542998;75;817;-62
2021/08/23 05:00:29;;;;;;;;;;;23.40;47.50;;;;;;1554594;76;782;-62
2021/08/23 05:02:31;;;;;;;;;;;23.40;47.50;;;;;;1539204;75;1188;-62
2021/08/23 05:04:33;;;;;;;;;;;23.40;47.50;;;;;;1549554;75;1932;-63
2021/08/23 05:06:35;;;;;;;;;;;23.50;47.60;;;;;;1538583;75;780;-62
2021/08/23 05:08:37;;;;;;;;;;;23.50;47.60;;;;;;1541965;75;794;-62
2021/08/23 05:10:39;;;;;;;;;;;23.50;47.60;;;;;;1555138;74;729;-63
2021/08/23 05:12:41;;;;;;;;;;;23.40;47.50;;;;;;1524368;75;1257;-63
2021/08/23 05:14:43;;;;;;;;;;;23.50;47.60;;;;;;1537244;76;735;-63
2021/08/23 05:16:44;;;;;;;;;;;23.40;47.50;;;;;;1542746;75;819;-63
2021/08/23 05:18:47;;;;;;;;;;;23.40;47.40;;;;;;1542001;75;768;-62
2021/08/23 05:20:49;;;;;;;;;;;23.40;47.50;;;;;;1542894;75;676;-62
2021/08/23 05:22:51;;;;;;;;;;;23.40;47.50;;;;;;1544950;75;1109;-63
2021/08/23 05:24:52;;;;;;;;;;;23.50;47.60;;;;;;1548075;75;1908;-63
2021/08/23 05:26:54;;;;;;;;;;;23.40;47.50;;;;;;1544811;75;812;-63
2021/08/23 05:28:56;;;;;;;;;;;23.40;47.50;;;;;;1553188;75;774;-62
2021/08/23 05:30:58;;;;;;;;;;;23.40;47.60;;;;;;1547502;75;837;-63
2021/08/23 05:33:00;;;;;;;;;;;23.40;47.50;;;;;;1548743;74;1109;-63
2021/08/23 05:35:02;;;;;;;;;;;23.50;47.60;;;;;;1547191;75;810;-63
2021/08/23 05:37:04;;;;;;;;;;;23.40;47.50;;;;;;1545343;75;739;-63
2021/08/23 05:39:05;;;;;;;;;;;23.40;47.60;;;;;;1543755;75;770;-63
2021/08/23 05:41:07;;;;;;;;;;;23.40;47.60;;;;;;1543775;75;722;-62
2021/08/23 05:43:09;;;;;;;;;;;23.40;47.60;;;;;;1533997;75;1185;-62
2021/08/23 05:45:11;;;;;;;;;;;23.30;47.60;;;;;;1549465;75;1943;-63
2021/08/23 05:47:13;;;;;;;;;;;23.40;47.60;;;;;;1538134;75;750;-63
2021/08/23 05:49:15;;;;;;;;;;;23.50;47.60;;;;;;1543949;75;755;-62
2021/08/23 05:51:17;;;;;;;;;;;23.40;47.60;;;;;;1532698;76;1131;-62
2021/08/23 05:53:19;;;;;;;;;;;23.40;47.60;;;;;;1539866;75;772;-62
2021/08/23 05:55:21;;;;;;;;;;;23.40;47.60;;;;;;1543052;75;794;-63
2021/08/23 05:57:26;;;;;;;;;;;23.50;47.80;;;;;;1543710;75;753;-62
2021/08/23 05:59:26;;;;;;;;;;;23.40;47.60;;;;;;1540789;75;1519;-63
2021/08/23 06:01:28;;;;;;;;;;;23.40;47.70;;;;;;1530478;77;1118;-62
2021/08/23 06:03:30;;;;;;;;;;;23.50;47.80;;;;;;1538456;75;776;-61
2021/08/23 06:05:32;;;;;;;;;;;23.40;47.70;;;;;;1538546;75;1928;-63
2021/08/23 06:07:34;;;;;;;;;;;23.50;47.80;;;;;;1542011;75;798;-62
2021/08/23 06:09:36;;;;;;;;;;;23.50;47.80;;;;;;1544654;75;673;-62
2021/08/23 06:11:38;;;;;;;;;;;23.40;47.80;;;;;;1528985;75;1183;-61
2021/08/23 06:13:40;;;;;;;;;;;23.40;47.80;;;;;;1538497;75;797;-63
2021/08/23 06:15:42;;;;;;;;;;;23.50;47.90;;;;;;1546592;75;719;-63
2021/08/23 06:17:43;;;;;;;;;;;23.50;48.00;;;;;;1542902;75;704;-61
2021/08/23 06:19:45;;;;;;;;;;;23.40;47.80;;;;;;1543312;75;782;-63
2021/08/23 06:21:47;;;;;;;;;;;23.50;48.00;;;;;;1541070;75;1149;-60
2021/08/23 06:23:49;;;;;;;;;;;23.40;47.90;;;;;;1544173;75;794;-63
2021/08/23 06:25:51;;;;;;;;;;;23.40;47.90;;;;;;1544364;75;1954;-63
2021/08/23 06:27:53;;;;;;;;;;;23.40;47.90;;;;;;1545769;75;717;-63
2021/08/23 06:29:56;;;;;;;;;;;23.40;47.90;;;;;;1543982;75;693;-63
2021/08/23 06:32:02;;;;;;;;;;;23.40;48.00;;;;;;1541675;75;1148;-62
2021/08/23 06:34:02;;;;;;;;;;;23.50;48.10;;;;;;1549675;75;1611;-62
2021/08/23 06:36:04;;;;;;;;;;;23.40;48.00;;;;;;1550640;75;838;-62
2021/08/23 06:38:06;;;;;;;;;;;23.50;48.20;;;;;;1556109;75;645;-62
2021/08/23 06:40:08;;;;;;;;;;;23.50;48.10;;;;;;1533403;75;719;-62
2021/08/23 06:42:10;;;;;;;;;;;23.50;48.10;;;;;;1545633;75;1128;-63
2021/08/23 06:44:12;;;;;;;;;;;23.50;48.20;;;;;;1554882;75;747;-63
2021/08/23 06:46:14;;;;;;;;;;;23.50;48.20;;;;;;1547158;75;1948;-63
2021/08/23 06:48:16;;;;;;;;;;;23.50;48.20;;;;;;1544387;75;716;-61
2021/08/23 06:50:18;;;;;;;;;;;23.50;48.20;;;;;;1540052;75;806;-61
2021/08/23 06:52:20;;;;;;;;;;;23.50;48.20;;;;;;1548283;75;1125;-63
2021/08/23 06:54:22;;;;;;;;;;;23.50;48.30;;;;;;1554285;75;776;-61
2021/08/23 06:56:24;;;;;;;;;;;23.50;48.40;;;;;;1543974;76;787;-63
2021/08/23 06:58:26;;;;;;;;;;;23.50;48.40;;;;;;1542830;76;809;-63
2021/08/23 07:00:28;;;;;;;;;;;23.50;48.40;;;;;;1554303;75;799;-61
2021/08/23 07:02:30;;;;;;;;;;;23.50;48.40;;;;;;1558118;74;1130;-62
2021/08/23 07:04:32;;;;;;;;;;;23.50;48.40;;;;;;1547104;75;707;-63
2021/08/23 07:06:34;;;;;;;;;;;23.50;48.40;;;;;;1550836;75;1947;-63
2021/08/23 07:08:36;;;;;;;;;;;23.50;48.40;;;;;;1542445;75;832;-62
2021/08/23 07:10:38;;;;;;;;;;;23.50;48.40;;;;;;1534615;75;819;-63
2021/08/23 07:12:40;;;;;;;;;;;23.50;48.40;;;;;;1540601;75;1219;-63
2021/08/23 07:14:41;;;;;;;;;;;23.50;48.40;;;;;;1542904;75;774;-63
2021/08/23 07:16:43;;;;;;;;;;;23.50;48.40;;;;;;1544804;76;826;-63
2021/08/23 07:18:45;;;;;;;;;;;23.50;48.40;;;;;;1547698;75;821;-63
2021/08/23 07:20:47;;;;;;;;;;;23.50;48.40;;;;;;1542860;75;838;-63
2021/08/23 07:22:49;;;;;;;;;;;23.50;48.40;;;;;;1552194;75;1091;-62
2021/08/23 07:24:51;;;;;;;;;;;23.50;48.30;;;;;;1547511;75;804;-62
2021/08/23 07:26:53;;;;;;;;;;;23.50;48.30;;;;;;1537521;75;817;-63
2021/08/23 07:28:55;;;;;;;;;;;23.50;48.30;;;;;;1550380;75;750;-62
2021/08/23 07:30:57;;;;;;;;;;;23.50;48.30;;;;;;1543503;75;895;-62
2021/08/23 07:32:59;;;;;;;;;;;23.50;48.30;;;;;;1538545;75;1084;-63
2021/08/23 07:35:00;;;;;;;;;;;23.50;48.40;;;;;;1547346;75;720;-60
2021/08/23 07:37:02;;;;;;;;;;;23.50;48.40;;;;;;1555588;76;659;-63
2021/08/23 07:39:04;;;;;;;;;;;23.50;48.30;;;;;;1546039;75;660;-63
2021/08/23 07:41:06;;;;;;;;;;;23.50;48.30;;;;;;1550452;75;654;-63
2021/08/23 07:43:08;;;;;;;;;;;23.50;48.30;;;;;;1544058;75;1160;-62
2021/08/23 07:45:10;;;;;;;;;;;23.50;48.30;;;;;;1535501;75;1930;-63
2021/08/23 07:47:12;;;;;;;;;;;23.50;48.30;;;;;;1528413;75;870;-62
2021/08/23 07:49:14;;;;;;;;;;;23.50;48.20;;;;;;1543523;75;735;-62
2021/08/23 07:51:16;;;;;;;;;;;23.50;48.30;;;;;;1548173;75;1144;-61
2021/08/23 07:53:18;;;;;;;;;;;23.50;48.30;;;;;;1563675;73;2119;-66
2021/08/23 07:55:19;;;;;;;;;;;23.50;48.30;;;;;;1562100;74;679;-68
2021/08/23 07:57:21;;;;;;;;;;;23.50;48.30;;;;;;1577152;74;721;-69
2021/08/23 07:59:23;;;;;;;;;;;23.50;48.30;;;;;;1567711;74;739;-67
2021/08/23 08:01:25;;;;;;;;;;;23.50;48.40;;;;;;1572364;74;726;-67
2021/08/23 08:03:27;;;;;;;;;;;23.50;48.40;;;;;;1542057;75;1156;-67
2021/08/23 08:05:29;;;;;;;;;;;23.50;48.40;;;;;;1543962;75;1939;-70
2021/08/23 08:07:31;;;;;;;;;;;23.50;48.40;;;;;;1532874;75;854;-67
2021/08/23 08:09:33;;;;;;;;;;;23.50;48.50;;;;;;1535181;75;702;-67
2021/08/23 08:11:35;;;;;;;;;;;23.50;48.60;;;;;;1542915;75;649;-68
2021/08/23 08:13:36;;;;;;;;;;;23.50;48.60;;;;;;1541698;75;1148;-69
2021/08/23 08:15:40;;;;;;;;;;;23.50;48.60;;;;;;1541635;75;816;-70
2021/08/23 08:17:41;;;;;;;;;;;23.50;48.60;;;;;;1541026;75;692;-67
2021/08/23 08:19:43;;;;;;;;;;;23.50;48.60;;;;;;1542816;75;781;-67
2021/08/23 08:21:45;;;;;;;;;;;23.50;48.60;;;;;;1547219;74;1148;-66
2021/08/23 08:23:52;;;;;;;;;;;23.50;48.60;;;;;;1550772;76;705;-69
2021/08/23 08:25:51;;;;;;;;;;;23.50;48.70;;;;;;1547067;75;1938;-67
2021/08/23 08:27:52;;;;;;;;;;;23.50;48.70;;;;;;1550644;75;769;-67
2021/08/23 08:29:54;;;;;;;;;;;23.50;48.70;;;;;;1542806;75;703;-68
2021/08/23 08:31:56;;;;;;;;;;;23.50;48.80;;;;;;1543009;75;1137;-67
2021/08/23 08:33:58;;;;;;;;;;;23.50;48.80;;;;;;1546646;75;690;-67
2021/08/23 08:36:00;;;;;;;;;;;23.50;48.80;;;;;;1544481;75;818;-68
2021/08/23 08:38:02;;;;;;;;;;;23.50;48.80;;;;;;1544115;75;714;-67
2021/08/23 08:40:04;;;;;;;;;;;23.50;48.80;;;;;;1539919;75;729;-67
2021/08/23 08:42:06;;;;;;;;;;;23.50;48.80;;;;;;1528574;75;1096;-69
2021/08/23 08:44:08;;;;;;;;;;;23.50;48.80;;;;;;1540619;75;801;-67
2021/08/23 08:46:10;;;;;;;;;;;23.60;48.90;;;;;;1539487;75;1947;-67
2021/08/23 08:48:12;;;;;;;;;;;23.50;48.90;;;;;;1540464;75;700;-65
2021/08/23 08:50:15;;;;;;;;;;;23.50;48.90;;;;;;1534661;75;814;-67
2021/08/23 08:52:17;;;;;;;;;;;23.50;48.90;;;;;;1535906;75;1082;-69
2021/08/23 08:54:19;;;;;;;;;;;23.50;48.90;;;;;;1540928;77;778;-68
2021/08/23 08:56:21;;;;;;;;;;;23.60;49.00;;;;;;1543051;75;728;-67
2021/08/23 08:58:23;;;;;;;;;;;23.50;49.00;;;;;;1543557;75;721;-64
2021/08/23 09:00:25;;;;;;;;;;;23.50;49.00;;;;;;1523357;76;800;-67
2021/08/23 09:02:27;;;;;;;;;;;23.60;49.00;;;;;;1540867;75;1130;-67
2021/08/23 09:04:29;;;;;;;;;;;23.50;49.00;;;;;;1543675;75;746;-67
2021/08/23 09:06:39;;;;;;;;;;;23.50;48.90;;;;;;1530898;75;1930;-68
2021/08/23 09:08:44;;;;;;;;;;;23.50;49.00;;;;;;1541486;75;1567;-69
2021/08/23 09:10:46;;;;;;;;;;;23.50;48.90;;;;;;1555470;75;725;-70
2021/08/23 09:12:49;;;;;;;;;;;23.50;48.90;;;;;;1545679;75;1170;-67
2021/08/23 09:14:52;;;;;;;;;;;23.50;48.90;;;;;;1543979;75;1137;-66
2021/08/23 09:16:54;;;;;;;;;;;23.50;48.80;;;;;;1547643;75;722;-67
2021/08/23 09:18:56;;;;;;;;;;;23.50;48.80;;;;;;1540868;76;884;-67
2021/08/23 09:20:59;;;;;;;;;;;23.50;48.80;;;;;;1541827;75;677;-67
2021/08/23 09:23:09;;;;;;;;;;;23.50;48.70;;;;;;1541690;75;1157;-67
2021/08/23 09:25:11;;;;;;;;;;;23.50;48.70;;;;;;1542274;75;1036;-69
2021/08/23 09:27:14;;;;;;;;;;;23.50;48.70;;;;;;1545019;75;1932;-69
2021/08/23 09:29:16;;;;;;;;;;;23.50;48.70;;;;;;1538393;75;720;-67
2021/08/23 09:31:19;;;;;;;;;;;23.50;48.70;;;;;;1543840;75;813;-68
2021/08/23 09:33:22;;;;;;;;;;;23.50;48.70;;;;;;1540527;75;1213;-67
2021/08/23 09:35:31;;;;;;;;;;;23.40;48.60;;;;;;1552231;75;706;-68
2021/08/23 09:37:33;;;;;;;;;;;23.50;48.80;;;;;;1537766;75;729;-68
2021/08/23 09:39:35;;;;;;;;;;;23.50;48.80;;;;;;1546659;75;749;-67
2021/08/23 09:41:40;;;;;;;;;;;23.50;48.90;;;;;;1549796;75;781;-66
2021/08/23 09:43:41;;;;;;;;;;;23.50;48.90;;;;;;1540778;75;950;-67
2021/08/23 09:45:47;;;;;;;;;;;23.50;48.90;;;;;;1549399;75;1951;-68
2021/08/23 09:47:47;;;;;;;;;;;23.40;48.80;;;;;;1551780;76;1586;-68
2021/08/23 09:49:49;;;;;;;;;;;23.50;49.00;;;;;;1522808;76;1164;-65
2021/08/23 09:51:51;;;;;;;;;;;23.50;49.00;;;;;;1547554;74;1142;-68
2021/08/23 09:53:55;;;;;;;;;;;23.40;48.80;;;;;;1548010;75;786;-67
2021/08/23 09:55:57;;;;;;;;;;;23.50;48.90;;;;;;1541088;75;1096;-67
2021/08/23 09:57:58;;;;;;;;;;;23.40;48.80;;;;;;1540312;75;762;-67
2021/08/23 10:00:01;;;;;;;;;;;23.50;49.00;;;;;;1539196;75;793;-67
2021/08/23 10:02:03;;;;;;;;;;;23.50;49.00;;;;;;1545345;75;1168;-67
2021/08/23 10:04:04;;;;;;;;;;;23.50;49.00;;;;;;1539116;75;824;-67
2021/08/23 10:06:06;;;;;;;;;;;23.40;48.90;;;;;;1541686;75;1916;-67
2021/08/23 10:08:08;;;;;;;;;;;23.50;49.10;;;;;;1547748;75;722;-66
2021/08/23 10:10:10;;;;;;;;;;;23.50;49.10;;;;;;1541814;75;672;-67
2021/08/23 10:12:13;;;;;;;;;;;23.50;49.20;;;;;;1550014;75;1225;-68
2021/08/23 10:14:15;;;;;;;;;;;23.50;49.20;;;;;;1544494;76;737;-68
2021/08/23 10:16:17;;;;;;;;;;;23.50;49.20;;;;;;1532085;76;791;-67
2021/08/23 10:18:19;;;;;;;;;;;23.50;49.20;;;;;;1550338;75;814;-68
2021/08/23 10:20:21;;;;;;;;;;;23.50;49.20;;;;;;1543476;75;749;-68
2021/08/23 10:22:22;;;;;;;;;;;23.50;49.20;;;;;;1549075;74;1155;-70
2021/08/23 10:24:26;;;;;;;;;;;23.50;49.20;;;;;;1550545;75;677;-67
2021/08/23 10:26:28;;;;;;;;;;;23.50;49.20;;;;;;1539244;76;1944;-67
2021/08/23 10:28:35;;;;;;;;;;;23.40;49.10;;;;;;1548745;75;763;-67
2021/08/23 10:30:37;;;;;;;;;;;23.50;49.20;;;;;;1548643;75;1038;-67
2021/08/23 10:32:42;;;;;;;;;;;23.60;49.20;;;;;;1545100;75;1160;-67
2021/08/23 10:34:44;;;;;;;;;;;23.50;49.20;;;;;;1543547;75;941;-67
2021/08/23 10:36:47;;;;;;;;;;;23.50;49.20;;;;;;1536626;75;767;-68
2021/08/23 10:38:48;;;;;;;;;;;23.50;49.20;;;;;;1543346;75;973;-67
2021/08/23 10:40:54;;;;;;;;;;;23.50;49.20;;;;;;1547727;75;725;-67
2021/08/23 10:42:56;;;;;;;;;;;23.50;49.20;;;;;;1537547;75;1196;-68
2021/08/23 10:44:59;;;;;;;;;;;23.50;49.30;;;;;;1536306;75;802;-69
2021/08/23 10:47:05;;;;;;;;;;;23.50;49.30;;;;;;1535692;75;2085;-67
2021/08/23 10:49:14;;;;;;;;;;;23.50;49.30;;;;;;1547021;75;756;-67
2021/08/23 10:51:30;;;;;;;;;;;23.50;49.30;;;;;;1533968;76;804;-70
2021/08/23 10:53:33;;;;;;;;;;;23.50;49.20;;;;;;1531759;75;1758;-67
2021/08/23 10:55:37;;;;;;;;;;;23.50;49.30;;;;;;1541977;75;780;-69
2021/08/23 10:57:38;;;;;;;;;;;23.50;49.30;;;;;;1552810;75;1406;-67
2021/08/23 10:59:45;;;;;;;;;;;23.50;49.30;;;;;;1542331;75;736;-67
2021/08/23 11:01:56;;;;;;;;;;;23.50;49.30;;;;;;1547959;75;1129;-69
2021/08/23 11:04:05;;;;;;;;;;;23.60;49.20;;;;;;1548750;75;656;-68
2021/08/23 11:06:07;;;;;;;;;;;23.50;49.20;;;;;;1546726;75;680;-68
2021/08/23 11:08:12;;;;;;;;;;;23.60;49.20;;;;;;1551248;75;1924;-67
2021/08/23 11:10:17;;;;;;;;;;;23.50;49.00;;;;;;1540891;75;923;-69
2021/08/23 11:12:19;;;;;;;;;;;23.50;49.00;;;;;;1537177;75;1089;-68
2021/08/23 11:14:21;;;;;;;;;;;23.50;48.90;;;;;;1537968;76;749;-68
2021/08/23 11:16:25;;;;;;;;;;;23.50;48.90;;;;;;1547280;75;864;-68
2021/08/23 11:18:27;;;;;;;;;;;23.60;48.90;;;;;;1543389;75;736;-68
2021/08/23 11:20:29;;;;;;;;;;;23.50;48.80;;;;;;1541236;75;779;-68
2021/08/23 11:22:31;;;;;;;;;;;23.50;48.70;;;;;;1547703;74;1180;-68
2021/08/23 11:24:33;;;;;;;;;;;23.50;48.70;;;;;;1542383;75;765;-68
2021/08/23 11:26:37;;;;;;;;;;;23.60;48.70;;;;;;1546261;75;1947;-68
2021/08/23 11:28:39;;;;;;;;;;;23.50;48.60;;;;;;1545322;75;1677;-70
2021/08/23 11:30:41;;;;;;;;;;;23.50;48.50;;;;;;1530916;75;678;-68
2021/08/23 11:32:43;;;;;;;;;;;23.50;48.40;;;;;;1539434;75;1125;-68
2021/08/23 11:34:46;;;;;;;;;;;23.50;48.40;;;;;;1519640;76;1165;-68
2021/08/23 11:36:48;;;;;;;;;;;23.50;48.40;;;;;;1555479;75;1871;-67
2021/08/23 11:38:50;;;;;;;;;;;23.50;48.40;;;;;;1548988;76;716;-68
2021/08/23 11:40:52;;;;;;;;;;;23.50;48.40;;;;;;1550298;76;690;-68
2021/08/23 11:42:55;;;;;;;;;;;23.50;48.40;;;;;;1553717;76;1180;-68
2021/08/23 11:44:57;;;;;;;;;;;23.50;48.40;;;;;;1543020;75;849;-69
2021/08/23 11:47:03;;;;;;;;;;;23.50;48.30;;;;;;1541308;75;1925;-68
2021/08/23 11:49:04;;;;;;;;;;;23.50;48.30;;;;;;1532067;75;735;-68
2021/08/23 11:51:06;;;;;;;;;;;23.50;48.20;;;;;;1546194;75;795;-69
2021/08/23 11:53:09;;;;;;;;;;;23.50;48.20;;;;;;1551677;75;1120;-70
2021/08/23 11:55:11;;;;;;;;;;;23.50;48.10;;;;;;1554839;75;777;-68
2021/08/23 11:57:12;;;;;;;;;;;23.50;48.10;;;;;;1535397;75;752;-70
2021/08/23 11:59:14;;;;;;;;;;;23.60;47.90;;;;;;1543728;75;856;-68
2021/08/23 12:01:16;;;;;;;;;;;23.50;47.90;;;;;;1532115;75;735;-68
2021/08/23 12:03:19;;;;;;;;;;;23.50;47.80;;;;;;1543551;75;1145;-67
2021/08/23 12:05:21;;;;;;;;;;;23.50;47.60;;;;;;1541652;75;791;-68
2021/08/23 12:07:22;;;;;;;;;;;23.50;47.70;;;;;;1532566;75;1942;-67
2021/08/23 12:09:24;;;;;;;;;;;23.50;47.60;;;;;;1551518;75;703;-68